map of MPA home
MPA - Airport
Location
City:  Katima Mulilo, Zambezi, Namibia
Name:Mpacha Airport
Old (Alt.):Katima Mulilo Airport
ICAO:FYKM
IATA:MPA

Details
Type:Airport (Aerodrome, Airfield)
Latitude:1738'04"S (-17.634427)
Longitude:2410'36"E (24.176658)
Datum:WGS 1984
Elevation:3144 ft (958 m)
Variation:6.85W (WMM2015 magnetic declination)
0.05 annual change
Runways:1
Longest:7520 × 128 ft (2292 × 39 m), paved

Time
Time Zone:UTC+1 (DST+2)

Weather
METAR:FYKM 150700Z 14004KT CAVOK 28/14 Q1017

Related Locations
Nearby:
Farthest:KOA: 12285 mi / 19770 km
Kailua/Kona [Ellison Onizuka Kona Intl at Keahole], Hawaii, HI, US

Find:

   beyond  
but within

Other Information
Maps:
NOTAMs:
Links:
Sources:

  
  • flag of Namibia
  

Sectional Chart

Flight Planning
at skyvector.com

Satellite Image

Google Maps Satellite view

 

Copyright © 2004-2018 Karl L. Swartz. All rights reserved.
The Great Circle Mapper name and logo are trademarks of the Great Circle Mapper.
All other trademarks mentioned herein belong to their respective owners.
Please see credits for attibutions and further copyright information.

  Follow gcmap on Facebook Follow gcmap on Twitter Follow gcmap on Google+ GCmap on LinkedIn

hCard Microformat

Geo Microformat